IOLK1: Grand River, Iola

                                SHEF ID:       IOLK1     NEOSHO RIVER NEAR IOLA
STATION TYPE:
Regulating: Stage = 15.00, Flow = 18228

PRECIP STAGE RIV-FLOW AIR-TEMP BAT-LOAD
in ft cfs F volt
Ccp-Rev Ccp-Rev Ccp-Rev Ccp-Rev Ccp-Rev
(America/Chicago)
02/28 00:00 0.00 9.09 4683 13.50 12.45
02/28 01:00 0.00 9.08 4649 13.90 12.43
02/28 02:00 0.00 9.05 4546 13.60 12.40
02/28 03:00 0.00 9.06 4580 13.70 12.38
02/28 04:00 0.00 9.07 4614 12.90 12.37
02/28 05:00 0.00 9.08 4649 14.30 12.34
02/28 06:00 0.00 9.07 4614 11.90 12.32
02/28 07:00 0.00 9.09 4683 9.30 12.31
02/28 08:00 0.00 9.05 4546 11.20 12.33
02/28 09:00 0.00 9.07 4614 12.40 12.29
02/28 10:00 0.01 9.07 4614 13.30 12.60
02/28 11:00 0.00 9.09 4683 16.70 12.47
02/28 12:00 0.00 9.09 4683 18.90 13.06
02/28 13:00 0.00 9.09 4683 22.10 12.91
02/28 14:00 0.00 9.10 4718 22.60 13.00
02/28 15:00 0.00 9.08 4649 23.00 12.88
02/28 16:00 0.00 9.08 4649 23.20 12.88
02/28 17:00 0.00 9.11 4752 23.10 12.84
02/28 18:00 0.00 9.07 4614 20.20 12.73
02/28 19:00 0.00 9.07 4614 15.80 12.63
02/28 20:00 0.00 9.08 4649 13.10 12.58
02/28 21:00 0.00 9.07 4614 11.70 12.54
02/28 22:00 0.00 9.08 4649 10.30 12.50
02/28 23:00 0.00 9.08 4649 8.10 12.47
Data processed at Sun 01Mar2026 05:38 GMT

NOTICE: If you are parsing this page

Please convert to using our Data API. Starting early 2026 we will be migrating to: https://water.usace.army.mil with modern pages rendered in JavaScript. When this migration completes you will no longer be able to scrape this page! CWMSDataAPI (CDA)

Timeseries IDs (TSIDs)

TSIDs used from left to right in the data table
IOLA.Precip-Inc.Total.1Hour.1Hour.Ccp-Rev
IOLA.Stage.Inst.1Hour.0.Ccp-Rev
IOLA.Flow.Inst.1Hour.0.Ccp-Rev
IOLA.Temp-Air.Inst.1Hour.0.Ccp-Rev
IOLA.Volt-Battery Load.Inst.1Hour.0.Ccp-Rev

                            

All information presented herein is the property of the government of the United States of America and may be revised or deleted at any time without prior notice. Dissemination of this information without the expressed written consent of the Public Affairs Office, Tulsa District U.S. Army Corps of Engineers is strictly prohibited. These data are gathered electronically and, as presented, have NOT undergone any form of quality control. These data are NOT guaranteed to be valid or correct.